Search for airport 
image banner adimage banner ad
image banner ad

SVCO - Carora

Located in Lara, Venezuela

ICAO - SVCO, IATA - VCR

Data provided by Airmate  

General information

Coordinates: N10°10'32" W70°3'54"
Elevation is 1496 feet MSL.
 
Rated:
View ratings: [VIEW]


View others Airports in Lara

Operational data

Open for public use
Current time UTC:
Current local time:
METAR: SVBM 211700Z 09002KT 8000 -DZ OVC013 24/23 Q1015
TAF: TAF SVBM 211025Z 2112/2212 09010KT 9999 FEW016 BKN100 TX33/2118Z TN22/2208Z BECMG 2113/2117 10010KT 9999 SCT016 BKN080
View NOTAMs / SUP AIP / TFR affecting this airport [VIEW]
Communications frequencies: [VIEW]

Runways:

RWY identifierQFULength (ft)Width (ft)SurfaceLDA (ft)
1097°5052164ASP
285052164

Airport contact information

Address: Lara Venezuela

Satellite view of SVCO